sensor_id;sensor_type;location;lat;lon;timestamp;P1;durP1;ratioP1;P2;durP2;ratioP2
19448;SDS011;9863;49.404;8.246;2023-02-28T00:01:27;324.30;;;60.40;;
19448;SDS011;9863;49.404;8.246;2023-02-28T00:03:55;323.60;;;59.60;;
19448;SDS011;9863;49.404;8.246;2023-02-28T00:06:23;336.80;;;65.17;;
19448;SDS011;9863;49.404;8.246;2023-02-28T00:08:52;325.70;;;61.17;;
19448;SDS011;9863;49.404;8.246;2023-02-28T00:11:19;340.93;;;63.87;;
19448;SDS011;9863;49.404;8.246;2023-02-28T00:13:47;346.57;;;67.47;;
19448;SDS011;9863;49.404;8.246;2023-02-28T00:16:16;335.43;;;63.73;;
19448;SDS011;9863;49.404;8.246;2023-02-28T00:18:48;317.20;;;57.40;;
19448;SDS011;9863;49.404;8.246;2023-02-28T00:21:16;341.53;;;64.70;;
19448;SDS011;9863;49.404;8.246;2023-02-28T00:23:45;331.23;;;61.67;;
19448;SDS011;9863;49.404;8.246;2023-02-28T00:26:13;335.30;;;62.57;;
19448;SDS011;9863;49.404;8.246;2023-02-28T00:28:40;329.87;;;61.33;;
19448;SDS011;9863;49.404;8.246;2023-02-28T00:31:07;328.07;;;59.13;;
19448;SDS011;9863;49.404;8.246;2023-02-28T00:33:34;325.47;;;59.63;;
19448;SDS011;9863;49.404;8.246;2023-02-28T00:36:05;331.63;;;62.50;;
19448;SDS011;9863;49.404;8.246;2023-02-28T00:38:34;326.73;;;59.23;;
19448;SDS011;9863;49.404;8.246;2023-02-28T00:41:03;342.10;;;64.07;;
19448;SDS011;9863;49.404;8.246;2023-02-28T00:43:34;336.60;;;64.47;;
19448;SDS011;9863;49.404;8.246;2023-02-28T00:46:05;329.47;;;59.70;;
19448;SDS011;9863;49.404;8.246;2023-02-28T00:48:33;333.33;;;62.93;;
19448;SDS011;9863;49.404;8.246;2023-02-28T00:51:01;332.30;;;61.87;;
19448;SDS011;9863;49.404;8.246;2023-02-28T00:53:28;324.10;;;59.17;;
19448;SDS011;9863;49.404;8.246;2023-02-28T00:55:56;333.53;;;62.40;;
19448;SDS011;9863;49.404;8.246;2023-02-28T00:58:23;330.17;;;60.03;;
19448;SDS011;9863;49.404;8.246;2023-02-28T01:00:53;335.67;;;64.67;;
19448;SDS011;9863;49.404;8.246;2023-02-28T01:03:21;347.77;;;68.57;;
19448;SDS011;9863;49.404;8.246;2023-02-28T01:05:49;340.50;;;64.53;;
19448;SDS011;9863;49.404;8.246;2023-02-28T01:08:16;340.40;;;63.57;;
19448;SDS011;9863;49.404;8.246;2023-02-28T01:10:43;332.07;;;61.73;;
19448;SDS011;9863;49.404;8.246;2023-02-28T01:13:11;350.03;;;68.00;;
19448;SDS011;9863;49.404;8.246;2023-02-28T01:18:31;364.40;;;74.37;;
19448;SDS011;9863;49.404;8.246;2023-02-28T01:21:03;344.20;;;67.00;;
19448;SDS011;9863;49.404;8.246;2023-02-28T01:23:35;330.83;;;61.37;;
19448;SDS011;9863;49.404;8.246;2023-02-28T01:26:04;320.43;;;56.63;;
19448;SDS011;9863;49.404;8.246;2023-02-28T01:28:44;319.17;;;56.77;;
19448;SDS011;9863;49.404;8.246;2023-02-28T01:31:12;326.17;;;59.63;;
19448;SDS011;9863;49.404;8.246;2023-02-28T01:33:39;317.10;;;57.20;;
19448;SDS011;9863;49.404;8.246;2023-02-28T01:36:17;341.20;;;65.50;;
19448;SDS011;9863;49.404;8.246;2023-02-28T01:38:47;321.97;;;58.03;;
19448;SDS011;9863;49.404;8.246;2023-02-28T01:41:17;315.67;;;56.67;;
19448;SDS011;9863;49.404;8.246;2023-02-28T01:46:12;323.83;;;59.23;;
19448;SDS011;9863;49.404;8.246;2023-02-28T01:48:45;319.00;;;57.20;;
19448;SDS011;9863;49.404;8.246;2023-02-28T01:51:14;325.53;;;58.23;;
19448;SDS011;9863;49.404;8.246;2023-02-28T01:53:48;331.53;;;60.50;;
19448;SDS011;9863;49.404;8.246;2023-02-28T01:56:20;310.20;;;54.13;;
19448;SDS011;9863;49.404;8.246;2023-02-28T01:58:54;342.10;;;64.70;;
19448;SDS011;9863;49.404;8.246;2023-02-28T02:01:22;340.70;;;63.20;;
19448;SDS011;9863;49.404;8.246;2023-02-28T02:03:54;342.50;;;65.13;;
19448;SDS011;9863;49.404;8.246;2023-02-28T02:06:29;332.40;;;61.23;;
19448;SDS011;9863;49.404;8.246;2023-02-28T02:09:02;328.77;;;60.57;;
19448;SDS011;9863;49.404;8.246;2023-02-28T02:11:30;323.23;;;57.63;;
19448;SDS011;9863;49.404;8.246;2023-02-28T02:17:46;339.97;;;62.70;;
19448;SDS011;9863;49.404;8.246;2023-02-28T02:28:41;317.47;;;55.73;;
19448;SDS011;9863;49.404;8.246;2023-02-28T02:34:41;309.37;;;53.10;;
19448;SDS011;9863;49.404;8.246;2023-02-28T02:40:16;320.80;;;57.07;;
19448;SDS011;9863;49.404;8.246;2023-02-28T02:42:48;326.13;;;58.60;;
19448;SDS011;9863;49.404;8.246;2023-02-28T02:45:33;356.77;;;69.40;;
19448;SDS011;9863;49.404;8.246;2023-02-28T02:48:11;320.33;;;55.70;;
19448;SDS011;9863;49.404;8.246;2023-02-28T02:50:44;318.33;;;56.47;;
19448;SDS011;9863;49.404;8.246;2023-02-28T02:53:17;316.23;;;55.83;;
19448;SDS011;9863;49.404;8.246;2023-02-28T02:55:51;314.63;;;55.50;;
19448;SDS011;9863;49.404;8.246;2023-02-28T02:58:22;309.10;;;52.73;;
19448;SDS011;9863;49.404;8.246;2023-02-28T03:00:55;315.50;;;55.60;;
19448;SDS011;9863;49.404;8.246;2023-02-28T03:03:27;325.03;;;58.00;;
19448;SDS011;9863;49.404;8.246;2023-02-28T03:05:59;324.20;;;59.07;;
19448;SDS011;9863;49.404;8.246;2023-02-28T03:08:28;309.93;;;53.20;;
19448;SDS011;9863;49.404;8.246;2023-02-28T03:11:02;317.20;;;54.67;;
19448;SDS011;9863;49.404;8.246;2023-02-28T03:23:21;318.83;;;55.93;;
19448;SDS011;9863;49.404;8.246;2023-02-28T03:26:00;328.97;;;58.90;;
19448;SDS011;9863;49.404;8.246;2023-02-28T03:31:50;304.10;;;52.10;;
19448;SDS011;9863;49.404;8.246;2023-02-28T03:34:35;300.53;;;50.43;;
19448;SDS011;9863;49.404;8.246;2023-02-28T03:37:08;311.90;;;54.03;;
19448;SDS011;9863;49.404;8.246;2023-02-28T03:40:05;305.73;;;52.63;;
19448;SDS011;9863;49.404;8.246;2023-02-28T03:42:35;320.97;;;57.40;;
19448;SDS011;9863;49.404;8.246;2023-02-28T03:45:10;307.30;;;52.27;;
19448;SDS011;9863;49.404;8.246;2023-02-28T03:47:59;321.40;;;56.33;;
19448;SDS011;9863;49.404;8.246;2023-02-28T03:50:38;304.27;;;52.87;;
19448;SDS011;9863;49.404;8.246;2023-02-28T03:53:10;313.90;;;53.67;;
19448;SDS011;9863;49.404;8.246;2023-02-28T03:55:48;307.17;;;52.37;;
19448;SDS011;9863;49.404;8.246;2023-02-28T03:58:22;308.30;;;52.27;;
19448;SDS011;9863;49.404;8.246;2023-02-28T04:01:08;308.23;;;53.20;;
19448;SDS011;9863;49.404;8.246;2023-02-28T04:03:50;310.97;;;53.80;;
19448;SDS011;9863;49.404;8.246;2023-02-28T04:06:19;311.13;;;53.47;;
19448;SDS011;9863;49.404;8.246;2023-02-28T04:08:49;315.43;;;54.60;;
19448;SDS011;9863;49.404;8.246;2023-02-28T04:11:22;313.73;;;54.07;;
19448;SDS011;9863;49.404;8.246;2023-02-28T04:14:03;322.57;;;56.87;;
19448;SDS011;9863;49.404;8.246;2023-02-28T04:16:32;335.70;;;60.97;;
19448;SDS011;9863;49.404;8.246;2023-02-28T04:19:05;341.47;;;64.10;;
19448;SDS011;9863;49.404;8.246;2023-02-28T04:21:35;304.27;;;51.57;;
19448;SDS011;9863;49.404;8.246;2023-02-28T04:24:09;310.00;;;53.13;;
19448;SDS011;9863;49.404;8.246;2023-02-28T04:26:43;306.33;;;51.67;;
19448;SDS011;9863;49.404;8.246;2023-02-28T04:29:23;302.47;;;51.50;;
19448;SDS011;9863;49.404;8.246;2023-02-28T04:31:56;309.67;;;53.03;;
19448;SDS011;9863;49.404;8.246;2023-02-28T04:34:26;308.20;;;52.03;;
19448;SDS011;9863;49.404;8.246;2023-02-28T04:36:56;304.33;;;51.20;;
19448;SDS011;9863;49.404;8.246;2023-02-28T04:39:40;309.47;;;68.00;;
19448;SDS011;9863;49.404;8.246;2023-02-28T04:42:07;310.73;;;53.20;;
19448;SDS011;9863;49.404;8.246;2023-02-28T04:44:35;309.27;;;52.50;;
19448;SDS011;9863;49.404;8.246;2023-02-28T04:47:02;304.37;;;51.27;;
19448;SDS011;9863;49.404;8.246;2023-02-28T04:49:29;314.80;;;55.00;;
19448;SDS011;9863;49.404;8.246;2023-02-28T04:51:56;314.70;;;54.83;;
19448;SDS011;9863;49.404;8.246;2023-02-28T04:54:23;297.13;;;49.17;;
19448;SDS011;9863;49.404;8.246;2023-02-28T04:56:50;299.57;;;49.13;;
19448;SDS011;9863;49.404;8.246;2023-02-28T04:59:17;314.57;;;54.47;;
19448;SDS011;9863;49.404;8.246;2023-02-28T05:01:45;301.17;;;50.40;;
19448;SDS011;9863;49.404;8.246;2023-02-28T05:04:14;321.13;;;61.37;;
19448;SDS011;9863;49.404;8.246;2023-02-28T05:06:45;308.70;;;51.77;;
19448;SDS011;9863;49.404;8.246;2023-02-28T05:09:14;326.17;;;57.70;;
19448;SDS011;9863;49.404;8.246;2023-02-28T05:11:41;302.70;;;51.33;;
19448;SDS011;9863;49.404;8.246;2023-02-28T05:14:12;323.70;;;55.77;;
19448;SDS011;9863;49.404;8.246;2023-02-28T05:16:40;312.13;;;53.93;;
19448;SDS011;9863;49.404;8.246;2023-02-28T05:19:08;314.07;;;53.13;;
19448;SDS011;9863;49.404;8.246;2023-02-28T05:21:38;315.70;;;54.07;;
19448;SDS011;9863;49.404;8.246;2023-02-28T05:24:11;302.40;;;51.03;;
19448;SDS011;9863;49.404;8.246;2023-02-28T05:26:39;308.03;;;60.53;;
19448;SDS011;9863;49.404;8.246;2023-02-28T05:29:09;316.57;;;53.93;;
19448;SDS011;9863;49.404;8.246;2023-02-28T05:31:37;312.37;;;57.80;;
19448;SDS011;9863;49.404;8.246;2023-02-28T05:34:04;316.27;;;54.53;;
19448;SDS011;9863;49.404;8.246;2023-02-28T05:36:32;301.50;;;50.33;;
19448;SDS011;9863;49.404;8.246;2023-02-28T05:38:59;317.93;;;81.50;;
19448;SDS011;9863;49.404;8.246;2023-02-28T05:41:26;305.70;;;63.57;;
19448;SDS011;9863;49.404;8.246;2023-02-28T05:43:54;318.30;;;85.43;;
19448;SDS011;9863;49.404;8.246;2023-02-28T05:46:21;299.27;;;52.83;;
19448;SDS011;9863;49.404;8.246;2023-02-28T05:48:48;297.40;;;49.53;;
19448;SDS011;9863;49.404;8.246;2023-02-28T05:51:16;327.30;;;59.17;;
19448;SDS011;9863;49.404;8.246;2023-02-28T05:53:44;308.93;;;54.00;;
19448;SDS011;9863;49.404;8.246;2023-02-28T05:56:11;312.67;;;53.87;;
19448;SDS011;9863;49.404;8.246;2023-02-28T05:58:38;316.43;;;57.07;;
19448;SDS011;9863;49.404;8.246;2023-02-28T06:04:15;322.77;;;57.33;;
19448;SDS011;9863;49.404;8.246;2023-02-28T06:06:56;307.80;;;52.43;;
19448;SDS011;9863;49.404;8.246;2023-02-28T06:09:23;313.00;;;54.47;;
19448;SDS011;9863;49.404;8.246;2023-02-28T06:11:51;312.97;;;55.40;;
19448;SDS011;9863;49.404;8.246;2023-02-28T06:14:18;314.13;;;54.10;;
19448;SDS011;9863;49.404;8.246;2023-02-28T06:16:47;311.70;;;53.97;;
19448;SDS011;9863;49.404;8.246;2023-02-28T06:19:14;326.90;;;57.50;;
19448;SDS011;9863;49.404;8.246;2023-02-28T06:21:41;309.00;;;52.53;;
19448;SDS011;9863;49.404;8.246;2023-02-28T06:24:09;318.73;;;55.37;;
19448;SDS011;9863;49.404;8.246;2023-02-28T06:26:36;309.33;;;53.10;;
19448;SDS011;9863;49.404;8.246;2023-02-28T06:29:03;313.23;;;54.43;;
19448;SDS011;9863;49.404;8.246;2023-02-28T06:31:31;314.40;;;55.07;;
19448;SDS011;9863;49.404;8.246;2023-02-28T06:33:58;317.53;;;55.27;;
19448;SDS011;9863;49.404;8.246;2023-02-28T06:36:25;305.37;;;52.77;;
19448;SDS011;9863;49.404;8.246;2023-02-28T06:38:53;308.47;;;52.47;;
19448;SDS011;9863;49.404;8.246;2023-02-28T06:41:23;311.87;;;54.97;;
19448;SDS011;9863;49.404;8.246;2023-02-28T06:43:52;312.87;;;54.20;;
19448;SDS011;9863;49.404;8.246;2023-02-28T06:46:20;310.33;;;53.50;;
19448;SDS011;9863;49.404;8.246;2023-02-28T06:48:47;310.03;;;53.50;;
19448;SDS011;9863;49.404;8.246;2023-02-28T06:51:16;334.60;;;61.10;;
19448;SDS011;9863;49.404;8.246;2023-02-28T06:53:48;308.53;;;53.27;;
19448;SDS011;9863;49.404;8.246;2023-02-28T06:56:16;318.47;;;57.07;;
19448;SDS011;9863;49.404;8.246;2023-02-28T06:58:47;309.67;;;53.30;;
19448;SDS011;9863;49.404;8.246;2023-02-28T07:01:15;316.03;;;55.07;;
19448;SDS011;9863;49.404;8.246;2023-02-28T07:03:43;307.40;;;52.53;;
19448;SDS011;9863;49.404;8.246;2023-02-28T07:06:11;317.57;;;56.97;;
19448;SDS011;9863;49.404;8.246;2023-02-28T07:08:38;313.03;;;53.63;;
19448;SDS011;9863;49.404;8.246;2023-02-28T07:11:07;319.27;;;56.00;;
19448;SDS011;9863;49.404;8.246;2023-02-28T07:13:34;307.70;;;52.83;;
19448;SDS011;9863;49.404;8.246;2023-02-28T07:16:03;314.90;;;54.97;;
19448;SDS011;9863;49.404;8.246;2023-02-28T07:18:32;313.10;;;54.87;;
19448;SDS011;9863;49.404;8.246;2023-02-28T07:21:06;305.70;;;53.00;;
19448;SDS011;9863;49.404;8.246;2023-02-28T07:23:36;318.80;;;55.63;;
19448;SDS011;9863;49.404;8.246;2023-02-28T07:26:10;322.07;;;57.13;;
19448;SDS011;9863;49.404;8.246;2023-02-28T07:28:41;309.80;;;53.83;;
19448;SDS011;9863;49.404;8.246;2023-02-28T07:31:09;321.40;;;56.97;;
19448;SDS011;9863;49.404;8.246;2023-02-28T07:33:38;319.50;;;56.50;;
19448;SDS011;9863;49.404;8.246;2023-02-28T07:36:06;316.80;;;56.73;;
19448;SDS011;9863;49.404;8.246;2023-02-28T07:38:42;313.03;;;54.67;;
19448;SDS011;9863;49.404;8.246;2023-02-28T07:41:14;325.40;;;58.90;;
19448;SDS011;9863;49.404;8.246;2023-02-28T07:43:48;312.63;;;54.73;;
19448;SDS011;9863;49.404;8.246;2023-02-28T07:46:15;326.43;;;58.83;;
19448;SDS011;9863;49.404;8.246;2023-02-28T07:48:43;325.60;;;57.73;;
19448;SDS011;9863;49.404;8.246;2023-02-28T07:51:11;325.90;;;59.77;;
19448;SDS011;9863;49.404;8.246;2023-02-28T07:53:38;320.80;;;56.97;;
19448;SDS011;9863;49.404;8.246;2023-02-28T07:56:05;313.53;;;56.37;;
19448;SDS011;9863;49.404;8.246;2023-02-28T07:58:33;318.80;;;56.90;;
19448;SDS011;9863;49.404;8.246;2023-02-28T08:01:07;317.90;;;57.63;;
19448;SDS011;9863;49.404;8.246;2023-02-28T08:03:36;317.13;;;56.97;;
19448;SDS011;9863;49.404;8.246;2023-02-28T08:06:05;321.73;;;57.07;;
19448;SDS011;9863;49.404;8.246;2023-02-28T08:08:47;325.57;;;59.43;;
19448;SDS011;9863;49.404;8.246;2023-02-28T08:11:15;320.30;;;58.03;;
19448;SDS011;9863;49.404;8.246;2023-02-28T08:13:43;336.20;;;62.77;;
19448;SDS011;9863;49.404;8.246;2023-02-28T08:16:12;323.57;;;59.43;;
19448;SDS011;9863;49.404;8.246;2023-02-28T08:18:51;314.07;;;57.07;;
19448;SDS011;9863;49.404;8.246;2023-02-28T08:21:19;324.13;;;59.10;;
19448;SDS011;9863;49.404;8.246;2023-02-28T08:23:47;314.77;;;55.83;;
19448;SDS011;9863;49.404;8.246;2023-02-28T08:26:16;322.90;;;59.27;;
19448;SDS011;9863;49.404;8.246;2023-02-28T08:28:44;324.30;;;60.23;;
19448;SDS011;9863;49.404;8.246;2023-02-28T08:31:13;327.30;;;65.43;;
19448;SDS011;9863;49.404;8.246;2023-02-28T08:33:42;318.77;;;58.73;;
19448;SDS011;9863;49.404;8.246;2023-02-28T08:36:11;330.57;;;63.93;;
19448;SDS011;9863;49.404;8.246;2023-02-28T08:38:38;338.63;;;63.87;;
19448;SDS011;9863;49.404;8.246;2023-02-28T08:41:07;338.43;;;65.97;;
19448;SDS011;9863;49.404;8.246;2023-02-28T08:43:37;329.27;;;62.30;;
19448;SDS011;9863;49.404;8.246;2023-02-28T08:46:06;340.20;;;65.47;;
19448;SDS011;9863;49.404;8.246;2023-02-28T08:48:34;333.33;;;64.47;;
19448;SDS011;9863;49.404;8.246;2023-02-28T08:51:05;330.57;;;64.57;;
19448;SDS011;9863;49.404;8.246;2023-02-28T08:53:36;329.87;;;64.57;;
19448;SDS011;9863;49.404;8.246;2023-02-28T08:56:06;334.37;;;66.90;;
19448;SDS011;9863;49.404;8.246;2023-02-28T08:58:36;342.53;;;67.03;;
19448;SDS011;9863;49.404;8.246;2023-02-28T09:01:07;330.13;;;64.93;;
19448;SDS011;9863;49.404;8.246;2023-02-28T09:03:46;344.43;;;69.70;;
19448;SDS011;9863;49.404;8.246;2023-02-28T09:06:16;340.10;;;68.63;;
19448;SDS011;9863;49.404;8.246;2023-02-28T09:08:45;329.00;;;65.67;;
19448;SDS011;9863;49.404;8.246;2023-02-28T09:11:13;333.70;;;66.30;;
19448;SDS011;9863;49.404;8.246;2023-02-28T09:13:40;329.23;;;65.00;;
19448;SDS011;9863;49.404;8.246;2023-02-28T09:16:10;339.13;;;68.67;;
19448;SDS011;9863;49.404;8.246;2023-02-28T09:18:40;347.20;;;71.80;;
19448;SDS011;9863;49.404;8.246;2023-02-28T09:21:08;331.67;;;74.40;;
19448;SDS011;9863;49.404;8.246;2023-02-28T09:23:42;335.23;;;68.17;;
19448;SDS011;9863;49.404;8.246;2023-02-28T09:26:18;346.83;;;72.30;;
19448;SDS011;9863;49.404;8.246;2023-02-28T09:28:50;345.87;;;72.87;;
19448;SDS011;9863;49.404;8.246;2023-02-28T09:31:21;336.97;;;69.43;;
19448;SDS011;9863;49.404;8.246;2023-02-28T09:33:51;331.07;;;67.30;;
19448;SDS011;9863;49.404;8.246;2023-02-28T09:36:22;329.50;;;76.80;;
19448;SDS011;9863;49.404;8.246;2023-02-28T09:39:06;333.47;;;71.63;;
19448;SDS011;9863;49.404;8.246;2023-02-28T09:41:38;338.80;;;71.73;;
19448;SDS011;9863;49.404;8.246;2023-02-28T09:50:15;349.87;;;78.87;;
19448;SDS011;9863;49.404;8.246;2023-02-28T09:52:44;340.47;;;80.83;;
19448;SDS011;9863;49.404;8.246;2023-02-28T09:57:42;340.30;;;86.03;;
19448;SDS011;9863;49.404;8.246;2023-02-28T10:00:18;346.50;;;78.57;;
19448;SDS011;9863;49.404;8.246;2023-02-28T10:05:27;379.40;;;91.70;;
19448;SDS011;9863;49.404;8.246;2023-02-28T10:08:03;341.73;;;74.43;;
19448;SDS011;9863;49.404;8.246;2023-02-28T10:10:33;346.97;;;78.90;;
19448;SDS011;9863;49.404;8.246;2023-02-28T10:13:17;342.70;;;77.10;;
19448;SDS011;9863;49.404;8.246;2023-02-28T10:16:35;333.23;;;70.70;;
19448;SDS011;9863;49.404;8.246;2023-02-28T10:19:33;343.93;;;74.63;;
19448;SDS011;9863;49.404;8.246;2023-02-28T10:22:12;334.23;;;75.63;;
19448;SDS011;9863;49.404;8.246;2023-02-28T10:24:50;339.33;;;74.23;;
19448;SDS011;9863;49.404;8.246;2023-02-28T10:27:21;357.77;;;101.87;;
19448;SDS011;9863;49.404;8.246;2023-02-28T10:29:57;348.27;;;78.37;;
19448;SDS011;9863;49.404;8.246;2023-02-28T10:32:27;349.10;;;92.10;;
19448;SDS011;9863;49.404;8.246;2023-02-28T10:34:59;367.67;;;89.40;;
19448;SDS011;9863;49.404;8.246;2023-02-28T10:37:41;365.43;;;87.03;;
19448;SDS011;9863;49.404;8.246;2023-02-28T10:43:03;366.83;;;87.77;;
19448;SDS011;9863;49.404;8.246;2023-02-28T10:45:55;358.00;;;85.40;;
19448;SDS011;9863;49.404;8.246;2023-02-28T10:51:07;351.70;;;93.97;;
19448;SDS011;9863;49.404;8.246;2023-02-28T10:53:47;355.23;;;88.87;;
19448;SDS011;9863;49.404;8.246;2023-02-28T10:56:28;374.17;;;92.60;;
19448;SDS011;9863;49.404;8.246;2023-02-28T11:01:44;359.60;;;96.17;;
19448;SDS011;9863;49.404;8.246;2023-02-28T11:09:52;369.07;;;100.33;;
19448;SDS011;9863;49.404;8.246;2023-02-28T11:12:37;351.52;;;95.50;;
19448;SDS011;9863;49.404;8.246;2023-02-28T11:17:55;364.17;;;105.60;;
19448;SDS011;9863;49.404;8.246;2023-02-28T11:20:52;359.55;;;106.22;;
19448;SDS011;9863;49.404;8.246;2023-02-28T11:23:24;357.27;;;105.78;;
19448;SDS011;9863;49.404;8.246;2023-02-28T11:25:54;361.20;;;108.90;;
19448;SDS011;9863;49.404;8.246;2023-02-28T11:28:30;367.23;;;112.00;;
19448;SDS011;9863;49.404;8.246;2023-02-28T11:36:29;365.15;;;120.28;;
19448;SDS011;9863;49.404;8.246;2023-02-28T11:38:59;364.08;;;118.60;;
19448;SDS011;9863;49.404;8.246;2023-02-28T11:47:42;364.65;;;130.95;;
19448;SDS011;9863;49.404;8.246;2023-02-28T11:56:01;386.55;;;143.95;;
19448;SDS011;9863;49.404;8.246;2023-02-28T12:07:18;380.92;;;139.98;;
19448;SDS011;9863;49.404;8.246;2023-02-28T12:13:09;379.23;;;145.50;;
19448;SDS011;9863;49.404;8.246;2023-02-28T12:27:12;372.17;;;140.45;;
19448;SDS011;9863;49.404;8.246;2023-02-28T12:29:50;375.90;;;144.85;;
19448;SDS011;9863;49.404;8.246;2023-02-28T12:32:30;373.50;;;146.88;;
19448;SDS011;9863;49.404;8.246;2023-02-28T12:37:41;398.95;;;203.65;;
19448;SDS011;9863;49.404;8.246;2023-02-28T12:40:18;380.65;;;172.85;;
19448;SDS011;9863;49.404;8.246;2023-02-28T12:42:49;387.85;;;193.80;;
19448;SDS011;9863;49.404;8.246;2023-02-28T12:45:39;382.17;;;190.52;;
19448;SDS011;9863;49.404;8.246;2023-02-28T12:48:14;395.25;;;220.90;;
19448;SDS011;9863;49.404;8.246;2023-02-28T12:50:50;391.58;;;196.98;;
19448;SDS011;9863;49.404;8.246;2023-02-28T13:08:52;391.27;;;222.23;;
19448;SDS011;9863;49.404;8.246;2023-02-28T13:11:30;376.15;;;169.82;;
19448;SDS011;9863;49.404;8.246;2023-02-28T13:14:28;393.50;;;221.27;;
19448;SDS011;9863;49.404;8.246;2023-02-28T13:19:37;402.40;;;261.75;;
19448;SDS011;9863;49.404;8.246;2023-02-28T13:22:17;375.02;;;160.45;;
19448;SDS011;9863;49.404;8.246;2023-02-28T13:26:07;376.75;;;169.68;;
19448;SDS011;9863;49.404;8.246;2023-02-28T13:28:07;377.92;;;179.52;;
19448;SDS011;9863;49.404;8.246;2023-02-28T13:33:33;395.55;;;176.60;;
19448;SDS011;9863;49.404;8.246;2023-02-28T13:36:10;378.38;;;169.55;;
19448;SDS011;9863;49.404;8.246;2023-02-28T13:51:51;393.17;;;189.10;;
19448;SDS011;9863;49.404;8.246;2023-02-28T14:05:43;379.83;;;185.80;;
19448;SDS011;9863;49.404;8.246;2023-02-28T14:08:20;376.23;;;185.63;;
19448;SDS011;9863;49.404;8.246;2023-02-28T14:10:50;388.45;;;202.95;;
19448;SDS011;9863;49.404;8.246;2023-02-28T14:16:13;395.48;;;198.02;;
19448;SDS011;9863;49.404;8.246;2023-02-28T14:18:49;380.63;;;180.20;;
19448;SDS011;9863;49.404;8.246;2023-02-28T14:21:24;386.02;;;188.05;;
19448;SDS011;9863;49.404;8.246;2023-02-28T14:27:29;384.15;;;184.07;;
19448;SDS011;9863;49.404;8.246;2023-02-28T14:36:49;381.35;;;178.70;;
19448;SDS011;9863;49.404;8.246;2023-02-28T14:39:20;373.83;;;176.00;;
19448;SDS011;9863;49.404;8.246;2023-02-28T14:41:51;378.05;;;186.32;;
19448;SDS011;9863;49.404;8.246;2023-02-28T14:44:20;387.20;;;187.18;;
19448;SDS011;9863;49.404;8.246;2023-02-28T14:46:59;386.00;;;190.27;;
19448;SDS011;9863;49.404;8.246;2023-02-28T14:49:35;382.83;;;191.27;;
19448;SDS011;9863;49.404;8.246;2023-02-28T14:54:39;381.30;;;187.77;;
19448;SDS011;9863;49.404;8.246;2023-02-28T14:57:20;382.23;;;194.73;;
19448;SDS011;9863;49.404;8.246;2023-02-28T15:02:54;390.88;;;194.85;;
19448;SDS011;9863;49.404;8.246;2023-02-28T15:05:32;384.58;;;198.93;;
19448;SDS011;9863;49.404;8.246;2023-02-28T15:08:15;393.63;;;200.85;;
19448;SDS011;9863;49.404;8.246;2023-02-28T15:13:40;389.08;;;192.70;;
19448;SDS011;9863;49.404;8.246;2023-02-28T15:16:16;393.00;;;210.02;;
19448;SDS011;9863;49.404;8.246;2023-02-28T15:18:53;390.58;;;196.38;;
19448;SDS011;9863;49.404;8.246;2023-02-28T15:21:25;410.67;;;213.57;;
19448;SDS011;9863;49.404;8.246;2023-02-28T15:24:04;400.55;;;205.25;;
19448;SDS011;9863;49.404;8.246;2023-02-28T15:26:41;386.67;;;187.15;;
19448;SDS011;9863;49.404;8.246;2023-02-28T15:29:21;392.55;;;188.82;;
19448;SDS011;9863;49.404;8.246;2023-02-28T15:31:56;389.92;;;195.77;;
19448;SDS011;9863;49.404;8.246;2023-02-28T15:40:06;392.38;;;198.63;;
19448;SDS011;9863;49.404;8.246;2023-02-28T15:42:40;386.90;;;186.00;;
19448;SDS011;9863;49.404;8.246;2023-02-28T15:45:26;385.73;;;189.88;;
19448;SDS011;9863;49.404;8.246;2023-02-28T15:48:05;389.38;;;184.93;;
19448;SDS011;9863;49.404;8.246;2023-02-28T15:50:41;391.25;;;181.73;;
19448;SDS011;9863;49.404;8.246;2023-02-28T15:53:15;405.80;;;190.48;;
19448;SDS011;9863;49.404;8.246;2023-02-28T15:56:21;401.42;;;189.00;;
19448;SDS011;9863;49.404;8.246;2023-02-28T15:59:06;369.88;;;166.70;;
19448;SDS011;9863;49.404;8.246;2023-02-28T16:01:41;382.90;;;171.15;;
19448;SDS011;9863;49.404;8.246;2023-02-28T16:06:45;388.45;;;173.95;;
19448;SDS011;9863;49.404;8.246;2023-02-28T16:09:27;378.23;;;161.70;;
19448;SDS011;9863;49.404;8.246;2023-02-28T16:12:00;375.45;;;162.73;;
19448;SDS011;9863;49.404;8.246;2023-02-28T16:14:29;386.63;;;162.20;;
19448;SDS011;9863;49.404;8.246;2023-02-28T16:17:03;378.63;;;156.82;;
19448;SDS011;9863;49.404;8.246;2023-02-28T16:19:36;372.70;;;149.98;;
19448;SDS011;9863;49.404;8.246;2023-02-28T16:22:03;389.90;;;157.43;;
19448;SDS011;9863;49.404;8.246;2023-02-28T16:24:30;399.13;;;157.52;;
19448;SDS011;9863;49.404;8.246;2023-02-28T16:26:57;369.33;;;142.20;;
19448;SDS011;9863;49.404;8.246;2023-02-28T16:29:27;370.48;;;140.13;;
19448;SDS011;9863;49.404;8.246;2023-02-28T16:31:58;387.50;;;146.88;;
19448;SDS011;9863;49.404;8.246;2023-02-28T16:34:27;376.67;;;141.00;;
19448;SDS011;9863;49.404;8.246;2023-02-28T16:36:54;380.05;;;142.50;;
19448;SDS011;9863;49.404;8.246;2023-02-28T16:39:21;401.60;;;148.60;;
19448;SDS011;9863;49.404;8.246;2023-02-28T16:41:49;385.98;;;143.00;;
19448;SDS011;9863;49.404;8.246;2023-02-28T16:44:27;370.25;;;131.02;;
19448;SDS011;9863;49.404;8.246;2023-02-28T16:46:59;380.60;;;139.90;;
19448;SDS011;9863;49.404;8.246;2023-02-28T16:49:29;375.73;;;132.18;;
19448;SDS011;9863;49.404;8.246;2023-02-28T16:51:56;379.52;;;130.23;;
19448;SDS011;9863;49.404;8.246;2023-02-28T16:54:23;377.42;;;126.90;;
19448;SDS011;9863;49.404;8.246;2023-02-28T16:56:50;380.95;;;128.18;;
19448;SDS011;9863;49.404;8.246;2023-02-28T16:59:19;374.65;;;122.45;;
19448;SDS011;9863;49.404;8.246;2023-02-28T17:01:50;374.85;;;118.95;;
19448;SDS011;9863;49.404;8.246;2023-02-28T17:04:18;384.40;;;126.97;;
19448;SDS011;9863;49.404;8.246;2023-02-28T17:06:45;380.73;;;127.05;;
19448;SDS011;9863;49.404;8.246;2023-02-28T17:09:14;370.98;;;122.28;;
19448;SDS011;9863;49.404;8.246;2023-02-28T17:11:44;360.90;;;111.10;;
19448;SDS011;9863;49.404;8.246;2023-02-28T17:14:13;373.40;;;114.00;;
19448;SDS011;9863;49.404;8.246;2023-02-28T17:16:41;361.10;;;107.30;;
19448;SDS011;9863;49.404;8.246;2023-02-28T17:19:11;364.92;;;114.07;;
19448;SDS011;9863;49.404;8.246;2023-02-28T17:21:40;361.05;;;108.45;;
19448;SDS011;9863;49.404;8.246;2023-02-28T17:24:08;376.20;;;123.65;;
19448;SDS011;9863;49.404;8.246;2023-02-28T17:26:55;367.53;;;105.90;;
19448;SDS011;9863;49.404;8.246;2023-02-28T17:29:22;378.80;;;112.40;;
19448;SDS011;9863;49.404;8.246;2023-02-28T17:31:50;373.10;;;108.17;;
19448;SDS011;9863;49.404;8.246;2023-02-28T17:34:17;362.63;;;111.30;;
19448;SDS011;9863;49.404;8.246;2023-02-28T17:36:46;373.40;;;128.63;;
19448;SDS011;9863;49.404;8.246;2023-02-28T17:39:16;369.37;;;98.67;;
19448;SDS011;9863;49.404;8.246;2023-02-28T17:41:51;367.87;;;100.43;;
19448;SDS011;9863;49.404;8.246;2023-02-28T17:44:19;372.30;;;99.63;;
19448;SDS011;9863;49.404;8.246;2023-02-28T17:46:48;380.33;;;106.37;;
19448;SDS011;9863;49.404;8.246;2023-02-28T17:49:16;372.73;;;146.67;;
19448;SDS011;9863;49.404;8.246;2023-02-28T17:51:44;366.43;;;145.27;;
19448;SDS011;9863;49.404;8.246;2023-02-28T17:54:13;376.77;;;120.30;;